sensor_id;sensor_type;location;lat;lon;timestamp;temperature;humidity
71563;DHT22;59391;52.504;13.438;2022-07-04T04:50:25;18.20;77.50
71563;DHT22;59391;52.504;13.438;2022-07-04T04:52:53;18.10;77.00
71563;DHT22;59391;52.504;13.438;2022-07-04T04:55:30;18.30;76.20
71563;DHT22;59391;52.504;13.438;2022-07-04T04:57:56;18.60;75.10
71563;DHT22;59391;52.504;13.438;2022-07-04T05:00:32;18.90;74.00
71563;DHT22;59391;52.504;13.438;2022-07-04T05:03:00;19.20;73.00
71563;DHT22;59391;52.504;13.438;2022-07-04T05:05:31;19.50;72.00
71563;DHT22;59391;52.504;13.438;2022-07-04T05:08:11;19.70;71.20
71563;DHT22;59391;52.504;13.438;2022-07-04T05:17:12;20.20;68.30
71563;DHT22;59391;52.504;13.438;2022-07-04T05:19:37;20.40;67.40
71563;DHT22;59391;52.504;13.438;2022-07-04T05:22:03;20.50;66.60
71563;DHT22;59391;52.504;13.438;2022-07-04T05:24:29;20.60;66.10
71563;DHT22;59391;52.504;13.438;2022-07-04T05:27:20;20.70;66.20
71563;DHT22;59391;52.504;13.438;2022-07-04T05:29:48;20.90;64.90
71563;DHT22;59391;52.504;13.438;2022-07-04T05:32:19;20.90;64.40
71563;DHT22;59391;52.504;13.438;2022-07-04T05:34:45;20.90;64.20
71563;DHT22;59391;52.504;13.438;2022-07-04T05:37:11;20.90;64.00
71563;DHT22;59391;52.504;13.438;2022-07-04T05:40:17;21.00;63.70
71563;DHT22;59391;52.504;13.438;2022-07-04T05:47:15;21.10;62.90
71563;DHT22;59391;52.504;13.438;2022-07-04T05:49:41;21.10;62.40
71563;DHT22;59391;52.504;13.438;2022-07-04T05:52:20;21.20;61.90
71563;DHT22;59391;52.504;13.438;2022-07-04T05:55:07;21.10;61.80
71563;DHT22;59391;52.504;13.438;2022-07-04T05:57:34;21.10;61.40
71563;DHT22;59391;52.504;13.438;2022-07-04T06:00:00;21.20;61.20
71563;DHT22;59391;52.504;13.438;2022-07-04T06:02:30;21.20;61.00
71563;DHT22;59391;52.504;13.438;2022-07-04T06:04:56;21.10;60.60
71563;DHT22;59391;52.504;13.438;2022-07-04T06:07:24;21.10;60.00
71563;DHT22;59391;52.504;13.438;2022-07-04T06:09:50;21.10;60.20
71563;DHT22;59391;52.504;13.438;2022-07-04T06:12:15;21.10;60.10
71563;DHT22;59391;52.504;13.438;2022-07-04T06:14:45;21.20;60.10
71563;DHT22;59391;52.504;13.438;2022-07-04T06:17:19;21.10;59.80
71563;DHT22;59391;52.504;13.438;2022-07-04T06:19:45;21.20;59.40
71563;DHT22;59391;52.504;13.438;2022-07-04T06:22:10;21.20;59.20
71563;DHT22;59391;52.504;13.438;2022-07-04T06:24:36;21.30;58.80
71563;DHT22;59391;52.504;13.438;2022-07-04T06:27:04;21.40;58.60
71563;DHT22;59391;52.504;13.438;2022-07-04T06:29:31;21.40;58.50
71563;DHT22;59391;52.504;13.438;2022-07-04T06:31:56;21.40;58.60
71563;DHT22;59391;52.504;13.438;2022-07-04T06:34:22;21.50;58.40
71563;DHT22;59391;52.504;13.438;2022-07-04T06:37:06;21.50;57.40
71563;DHT22;59391;52.504;13.438;2022-07-04T06:39:32;21.60;56.50
71563;DHT22;59391;52.504;13.438;2022-07-04T06:42:01;21.70;55.90
71563;DHT22;59391;52.504;13.438;2022-07-04T06:44:27;21.70;54.80
71563;DHT22;59391;52.504;13.438;2022-07-04T06:46:53;21.60;54.00
71563;DHT22;59391;52.504;13.438;2022-07-04T06:49:19;21.70;53.30
71563;DHT22;59391;52.504;13.438;2022-07-04T06:51:56;21.70;53.20
71563;DHT22;59391;52.504;13.438;2022-07-04T06:58:11;21.80;52.40
71563;DHT22;59391;52.504;13.438;2022-07-04T07:00:49;21.90;51.60
71563;DHT22;59391;52.504;13.438;2022-07-04T07:04:21;21.90;51.40
71563;DHT22;59391;52.504;13.438;2022-07-04T07:07:30;21.90;50.10
71563;DHT22;59391;52.504;13.438;2022-07-04T07:10:04;21.80;49.90
71563;DHT22;59391;52.504;13.438;2022-07-04T07:13:17;21.90;50.20
71563;DHT22;59391;52.504;13.438;2022-07-04T07:16:27;21.90;49.80
71563;DHT22;59391;52.504;13.438;2022-07-04T07:19:12;22.00;48.70
71563;DHT22;59391;52.504;13.438;2022-07-04T07:21:59;22.00;48.80
71563;DHT22;59391;52.504;13.438;2022-07-04T07:24:48;22.00;49.20
71563;DHT22;59391;52.504;13.438;2022-07-04T07:28:25;22.10;48.90
71563;DHT22;59391;52.504;13.438;2022-07-04T07:30:54;22.20;48.80
71563;DHT22;59391;52.504;13.438;2022-07-04T07:33:22;22.30;49.10
71563;DHT22;59391;52.504;13.438;2022-07-04T07:36:39;22.30;48.60
71563;DHT22;59391;52.504;13.438;2022-07-04T07:39:14;22.30;46.40
71563;DHT22;59391;52.504;13.438;2022-07-04T07:41:40;22.40;46.10
71563;DHT22;59391;52.504;13.438;2022-07-04T07:44:19;22.40;46.70
71563;DHT22;59391;52.504;13.438;2022-07-04T07:49:43;22.70;45.60
71563;DHT22;59391;52.504;13.438;2022-07-04T07:55:49;22.80;46.20
71563;DHT22;59391;52.504;13.438;2022-07-04T07:58:43;23.00;46.30
71563;DHT22;59391;52.504;13.438;2022-07-04T08:01:21;23.10;46.20
71563;DHT22;59391;52.504;13.438;2022-07-04T08:04:18;23.10;45.90
71563;DHT22;59391;52.504;13.438;2022-07-04T08:07:00;23.20;46.50
71563;DHT22;59391;52.504;13.438;2022-07-04T08:09:27;23.30;46.40
71563;DHT22;59391;52.504;13.438;2022-07-04T08:11:52;23.30;46.30
71563;DHT22;59391;52.504;13.438;2022-07-04T08:14:18;23.30;45.40
71563;DHT22;59391;52.504;13.438;2022-07-04T08:16:44;23.30;44.80
71563;DHT22;59391;52.504;13.438;2022-07-04T08:19:09;23.40;44.90
71563;DHT22;59391;52.504;13.438;2022-07-04T08:21:35;23.50;43.00
71563;DHT22;59391;52.504;13.438;2022-07-04T08:24:01;23.50;42.70
71563;DHT22;59391;52.504;13.438;2022-07-04T08:26:26;23.50;42.80
71563;DHT22;59391;52.504;13.438;2022-07-04T08:28:52;23.50;42.40
71563;DHT22;59391;52.504;13.438;2022-07-04T08:31:18;23.60;41.70
71563;DHT22;59391;52.504;13.438;2022-07-04T08:33:45;23.60;42.10
71563;DHT22;59391;52.504;13.438;2022-07-04T08:36:12;23.70;41.70
71563;DHT22;59391;52.504;13.438;2022-07-04T08:38:37;23.70;42.80
71563;DHT22;59391;52.504;13.438;2022-07-04T08:41:04;23.70;42.90
71563;DHT22;59391;52.504;13.438;2022-07-04T08:43:31;23.80;43.10
71563;DHT22;59391;52.504;13.438;2022-07-04T08:45:59;23.80;42.70
71563;DHT22;59391;52.504;13.438;2022-07-04T08:48:30;23.90;43.00
71563;DHT22;59391;52.504;13.438;2022-07-04T08:51:40;24.00;42.80
71563;DHT22;59391;52.504;13.438;2022-07-04T08:54:01;24.10;42.40
71563;DHT22;59391;52.504;13.438;2022-07-04T08:56:48;24.20;41.30
71563;DHT22;59391;52.504;13.438;2022-07-04T08:59:33;24.30;40.70
71563;DHT22;59391;52.504;13.438;2022-07-04T09:02:01;24.40;41.00
71563;DHT22;59391;52.504;13.438;2022-07-04T09:04:29;24.50;41.20
71563;DHT22;59391;52.504;13.438;2022-07-04T09:06:55;24.70;40.60
71563;DHT22;59391;52.504;13.438;2022-07-04T09:09:26;24.90;40.40
71563;DHT22;59391;52.504;13.438;2022-07-04T09:11:52;25.10;40.80
71563;DHT22;59391;52.504;13.438;2022-07-04T09:14:18;25.40;40.20
71563;DHT22;59391;52.504;13.438;2022-07-04T09:16:44;25.70;41.00
71563;DHT22;59391;52.504;13.438;2022-07-04T09:19:19;26.00;39.20
71563;DHT22;59391;52.504;13.438;2022-07-04T09:21:47;26.30;38.30
71563;DHT22;59391;52.504;13.438;2022-07-04T09:24:15;26.70;38.80
71563;DHT22;59391;52.504;13.438;2022-07-04T09:26:44;27.00;36.80
71563;DHT22;59391;52.504;13.438;2022-07-04T09:29:11;27.30;36.70
71563;DHT22;59391;52.504;13.438;2022-07-04T09:31:38;27.50;35.60
71563;DHT22;59391;52.504;13.438;2022-07-04T09:34:05;27.70;36.00
71563;DHT22;59391;52.504;13.438;2022-07-04T09:36:40;27.90;35.60
71563;DHT22;59391;52.504;13.438;2022-07-04T09:39:15;28.00;34.50
71563;DHT22;59391;52.504;13.438;2022-07-04T09:41:54;28.20;35.10
71563;DHT22;59391;52.504;13.438;2022-07-04T09:44:23;28.50;33.40
71563;DHT22;59391;52.504;13.438;2022-07-04T09:46:51;28.70;33.00
71563;DHT22;59391;52.504;13.438;2022-07-04T09:49:17;28.80;32.50
71563;DHT22;59391;52.504;13.438;2022-07-04T09:51:45;28.90;32.60
71563;DHT22;59391;52.504;13.438;2022-07-04T09:57:03;29.20;31.40
71563;DHT22;59391;52.504;13.438;2022-07-04T09:59:29;29.30;32.10
71563;DHT22;59391;52.504;13.438;2022-07-04T10:02:09;29.50;31.20
71563;DHT22;59391;52.504;13.438;2022-07-04T10:04:48;29.50;32.40
71563;DHT22;59391;52.504;13.438;2022-07-04T10:07:37;29.50;32.10
71563;DHT22;59391;52.504;13.438;2022-07-04T10:10:32;29.60;31.10
71563;DHT22;59391;52.504;13.438;2022-07-04T10:13:06;29.60;32.00
71563;DHT22;59391;52.504;13.438;2022-07-04T10:15:38;29.50;31.30
71563;DHT22;59391;52.504;13.438;2022-07-04T10:18:06;29.40;31.60
71563;DHT22;59391;52.504;13.438;2022-07-04T10:20:34;29.40;31.60
71563;DHT22;59391;52.504;13.438;2022-07-04T10:23:01;29.20;31.40
71563;DHT22;59391;52.504;13.438;2022-07-04T10:25:27;29.00;31.00
71563;DHT22;59391;52.504;13.438;2022-07-04T10:27:54;28.80;31.50
71563;DHT22;59391;52.504;13.438;2022-07-04T10:30:30;28.70;31.80
71563;DHT22;59391;52.504;13.438;2022-07-04T10:33:00;28.60;32.00
71563;DHT22;59391;52.504;13.438;2022-07-04T10:38:20;28.70;31.80
71563;DHT22;59391;52.504;13.438;2022-07-04T10:40:49;28.80;31.40
71563;DHT22;59391;52.504;13.438;2022-07-04T10:57:16;28.80;31.40
71563;DHT22;59391;52.504;13.438;2022-07-04T11:02:26;28.80;31.60
71563;DHT22;59391;52.504;13.438;2022-07-04T11:05:03;28.70;31.50
71563;DHT22;59391;52.504;13.438;2022-07-04T11:17:58;28.30;33.50
71563;DHT22;59391;52.504;13.438;2022-07-04T11:20:30;28.30;32.30
71563;DHT22;59391;52.504;13.438;2022-07-04T11:23:11;28.20;32.10
71563;DHT22;59391;52.504;13.438;2022-07-04T11:25:40;28.20;32.30
71563;DHT22;59391;52.504;13.438;2022-07-04T11:28:22;28.30;32.60
71563;DHT22;59391;52.504;13.438;2022-07-04T11:31:01;28.30;32.90
71563;DHT22;59391;52.504;13.438;2022-07-04T11:33:30;28.30;32.60
71563;DHT22;59391;52.504;13.438;2022-07-04T11:36:15;28.20;33.20
71563;DHT22;59391;52.504;13.438;2022-07-04T11:41:42;28.20;32.90
71563;DHT22;59391;52.504;13.438;2022-07-04T11:44:31;28.30;32.70
71563;DHT22;59391;52.504;13.438;2022-07-04T11:47:43;28.30;32.50
71563;DHT22;59391;52.504;13.438;2022-07-04T11:50:12;28.30;32.70
71563;DHT22;59391;52.504;13.438;2022-07-04T11:52:44;28.30;33.00
71563;DHT22;59391;52.504;13.438;2022-07-04T11:55:17;28.40;33.10
71563;DHT22;59391;52.504;13.438;2022-07-04T11:57:47;28.60;32.70
71563;DHT22;59391;52.504;13.438;2022-07-04T12:00:20;28.70;32.40
71563;DHT22;59391;52.504;13.438;2022-07-04T12:02:50;29.00;31.80
71563;DHT22;59391;52.504;13.438;2022-07-04T12:05:17;29.20;31.10
71563;DHT22;59391;52.504;13.438;2022-07-04T12:07:45;29.40;29.50
71563;DHT22;59391;52.504;13.438;2022-07-04T12:10:23;29.70;29.80
71563;DHT22;59391;52.504;13.438;2022-07-04T12:12:54;29.80;29.40
71563;DHT22;59391;52.504;13.438;2022-07-04T12:15:29;29.80;29.70
71563;DHT22;59391;52.504;13.438;2022-07-04T12:18:01;29.70;29.70
71563;DHT22;59391;52.504;13.438;2022-07-04T12:20:28;29.60;29.60
71563;DHT22;59391;52.504;13.438;2022-07-04T12:23:00;29.40;29.90
71563;DHT22;59391;52.504;13.438;2022-07-04T12:25:33;29.20;29.30
71563;DHT22;59391;52.504;13.438;2022-07-04T12:28:08;29.00;30.30
71563;DHT22;59391;52.504;13.438;2022-07-04T12:30:47;28.90;31.00
71563;DHT22;59391;52.504;13.438;2022-07-04T12:33:18;28.70;31.40
71563;DHT22;59391;52.504;13.438;2022-07-04T12:35:47;28.60;31.30
71563;DHT22;59391;52.504;13.438;2022-07-04T12:38:29;28.40;31.20
71563;DHT22;59391;52.504;13.438;2022-07-04T12:46:15;28.80;30.30
71563;DHT22;59391;52.504;13.438;2022-07-04T12:48:56;29.00;30.50
71563;DHT22;59391;52.504;13.438;2022-07-04T12:51:23;29.30;29.70
71563;DHT22;59391;52.504;13.438;2022-07-04T12:53:54;29.60;29.60
71563;DHT22;59391;52.504;13.438;2022-07-04T12:58:54;30.30;28.60
71563;DHT22;59391;52.504;13.438;2022-07-04T13:01:22;30.40;28.10
71563;DHT22;59391;52.504;13.438;2022-07-04T13:03:48;30.40;28.60
71563;DHT22;59391;52.504;13.438;2022-07-04T13:06:14;30.40;28.00
71563;DHT22;59391;52.504;13.438;2022-07-04T13:08:40;30.50;28.30
71563;DHT22;59391;52.504;13.438;2022-07-04T13:11:05;30.50;26.90
71563;DHT22;59391;52.504;13.438;2022-07-04T13:13:49;30.50;27.10
71563;DHT22;59391;52.504;13.438;2022-07-04T13:16:15;30.60;26.70
71563;DHT22;59391;52.504;13.438;2022-07-04T13:18:41;30.60;26.50
71563;DHT22;59391;52.504;13.438;2022-07-04T13:21:09;30.60;26.60
71563;DHT22;59391;52.504;13.438;2022-07-04T13:23:35;30.50;26.40
71563;DHT22;59391;52.504;13.438;2022-07-04T13:26:03;30.40;26.80
71563;DHT22;59391;52.504;13.438;2022-07-04T13:28:29;30.20;26.80
71563;DHT22;59391;52.504;13.438;2022-07-04T13:30:55;30.10;27.20
71563;DHT22;59391;52.504;13.438;2022-07-04T13:33:20;30.10;26.70
71563;DHT22;59391;52.504;13.438;2022-07-04T13:35:47;30.10;27.70
71563;DHT22;59391;52.504;13.438;2022-07-04T13:38:12;30.10;27.60
71563;DHT22;59391;52.504;13.438;2022-07-04T13:40:41;29.90;27.10
71563;DHT22;59391;52.504;13.438;2022-07-04T13:43:08;29.80;28.10
71563;DHT22;59391;52.504;13.438;2022-07-04T13:45:39;29.60;27.40
71563;DHT22;59391;52.504;13.438;2022-07-04T13:48:07;29.50;27.90
71563;DHT22;59391;52.504;13.438;2022-07-04T13:50:33;29.30;28.60
71563;DHT22;59391;52.504;13.438;2022-07-04T13:53:03;29.10;27.90
71563;DHT22;59391;52.504;13.438;2022-07-04T13:55:30;28.90;27.90
71563;DHT22;59391;52.504;13.438;2022-07-04T13:57:56;28.80;28.10
71563;DHT22;59391;52.504;13.438;2022-07-04T14:00:22;28.60;28.30
71563;DHT22;59391;52.504;13.438;2022-07-04T14:02:47;28.50;28.30
71563;DHT22;59391;52.504;13.438;2022-07-04T14:08:22;28.40;29.40
71563;DHT22;59391;52.504;13.438;2022-07-04T14:10:56;28.30;28.60
71563;DHT22;59391;52.504;13.438;2022-07-04T14:13:32;28.40;29.40
71563;DHT22;59391;52.504;13.438;2022-07-04T14:16:07;28.40;28.80
71563;DHT22;59391;52.504;13.438;2022-07-04T14:18:33;28.30;27.50
71563;DHT22;59391;52.504;13.438;2022-07-04T14:21:25;28.40;28.70
71563;DHT22;59391;52.504;13.438;2022-07-04T14:24:16;28.40;28.20
71563;DHT22;59391;52.504;13.438;2022-07-04T14:26:58;28.50;29.40
71563;DHT22;59391;52.504;13.438;2022-07-04T14:29:47;28.40;27.90
71563;DHT22;59391;52.504;13.438;2022-07-04T14:32:14;28.30;28.10
71563;DHT22;59391;52.504;13.438;2022-07-04T14:34:48;28.30;28.20
71563;DHT22;59391;52.504;13.438;2022-07-04T14:40:22;28.20;27.70
71563;DHT22;59391;52.504;13.438;2022-07-04T14:43:03;28.20;27.80
71563;DHT22;59391;52.504;13.438;2022-07-04T14:45:35;28.10;29.20
71563;DHT22;59391;52.504;13.438;2022-07-04T14:48:06;28.10;28.90
71563;DHT22;59391;52.504;13.438;2022-07-04T14:50:33;28.00;28.60
71563;DHT22;59391;52.504;13.438;2022-07-04T14:53:02;28.00;28.70
71563;DHT22;59391;52.504;13.438;2022-07-04T14:55:38;28.00;28.80
71563;DHT22;59391;52.504;13.438;2022-07-04T14:58:12;28.00;28.10
71563;DHT22;59391;52.504;13.438;2022-07-04T15:00:40;28.00;28.40
71563;DHT22;59391;52.504;13.438;2022-07-04T15:03:09;27.90;29.10
71563;DHT22;59391;52.504;13.438;2022-07-04T15:05:35;27.90;28.40
71563;DHT22;59391;52.504;13.438;2022-07-04T15:08:03;27.90;28.40
71563;DHT22;59391;52.504;13.438;2022-07-04T15:10:29;27.90;28.40
71563;DHT22;59391;52.504;13.438;2022-07-04T15:13:25;27.90;28.40
71563;DHT22;59391;52.504;13.438;2022-07-04T15:15:53;27.90;28.50
71563;DHT22;59391;52.504;13.438;2022-07-04T15:18:19;27.90;29.10
71563;DHT22;59391;52.504;13.438;2022-07-04T15:29:13;28.00;28.10
71563;DHT22;59391;52.504;13.438;2022-07-04T15:36:44;28.00;28.00
71563;DHT22;59391;52.504;13.438;2022-07-04T16:30:17;28.10;27.70
71563;DHT22;59391;52.504;13.438;2022-07-04T16:32:52;28.10;27.90
71563;DHT22;59391;52.504;13.438;2022-07-04T16:35:18;28.10;27.10
71563;DHT22;59391;52.504;13.438;2022-07-04T16:37:44;28.10;27.40
71563;DHT22;59391;52.504;13.438;2022-07-04T16:40:10;28.10;27.40
71563;DHT22;59391;52.504;13.438;2022-07-04T16:42:36;28.10;27.00
71563;DHT22;59391;52.504;13.438;2022-07-04T16:45:04;28.10;27.00
71563;DHT22;59391;52.504;13.438;2022-07-04T16:47:30;28.10;27.20
71563;DHT22;59391;52.504;13.438;2022-07-04T16:49:56;28.10;27.50
71563;DHT22;59391;52.504;13.438;2022-07-04T16:52:22;28.00;27.10
71563;DHT22;59391;52.504;13.438;2022-07-04T16:54:47;28.10;28.50
71563;DHT22;59391;52.504;13.438;2022-07-04T16:57:13;28.10;28.30
71563;DHT22;59391;52.504;13.438;2022-07-04T16:59:41;28.10;27.50
71563;DHT22;59391;52.504;13.438;2022-07-04T17:02:07;28.10;27.50
71563;DHT22;59391;52.504;13.438;2022-07-04T17:04:33;28.10;27.60
71563;DHT22;59391;52.504;13.438;2022-07-04T17:06:58;28.10;28.10
71563;DHT22;59391;52.504;13.438;2022-07-04T17:09:24;28.10;28.50
71563;DHT22;59391;52.504;13.438;2022-07-04T17:11:53;28.10;28.10
71563;DHT22;59391;52.504;13.438;2022-07-04T17:14:19;28.10;27.60
71563;DHT22;59391;52.504;13.438;2022-07-04T17:16:44;28.20;26.50
71563;DHT22;59391;52.504;13.438;2022-07-04T17:19:10;28.20;26.80
71563;DHT22;59391;52.504;13.438;2022-07-04T17:21:36;28.10;27.40
71563;DHT22;59391;52.504;13.438;2022-07-04T17:24:02;28.10;27.40
71563;DHT22;59391;52.504;13.438;2022-07-04T17:26:28;28.00;27.00
71563;DHT22;59391;52.504;13.438;2022-07-04T17:28:55;27.90;26.90
71563;DHT22;59391;52.504;13.438;2022-07-04T17:31:21;27.90;27.00
71563;DHT22;59391;52.504;13.438;2022-07-04T17:33:47;27.80;26.90
71563;DHT22;59391;52.504;13.438;2022-07-04T17:36:12;27.70;27.00
71563;DHT22;59391;52.504;13.438;2022-07-04T17:38:38;27.60;27.30
71563;DHT22;59391;52.504;13.438;2022-07-04T17:41:06;27.60;27.40
71563;DHT22;59391;52.504;13.438;2022-07-04T17:43:50;27.50;27.20
71563;DHT22;59391;52.504;13.438;2022-07-04T17:46:16;27.40;27.40
71563;DHT22;59391;52.504;13.438;2022-07-04T17:48:42;27.30;27.60
71563;DHT22;59391;52.504;13.438;2022-07-04T17:51:07;27.20;27.70
71563;DHT22;59391;52.504;13.438;2022-07-04T17:53:33;27.20;27.90
71563;DHT22;59391;52.504;13.438;2022-07-04T17:55:59;27.20;27.70
71563;DHT22;59391;52.504;13.438;2022-07-04T17:58:26;27.20;28.10
71563;DHT22;59391;52.504;13.438;2022-07-04T18:00:52;27.20;28.60
71563;DHT22;59391;52.504;13.438;2022-07-04T18:03:18;27.20;28.20
71563;DHT22;59391;52.504;13.438;2022-07-04T18:05:46;27.30;28.40
71563;DHT22;59391;52.504;13.438;2022-07-04T18:08:12;27.30;28.00
71563;DHT22;59391;52.504;13.438;2022-07-04T18:10:38;27.30;28.10
71563;DHT22;59391;52.504;13.438;2022-07-04T18:13:04;27.20;27.80
71563;DHT22;59391;52.504;13.438;2022-07-04T18:15:30;27.20;28.30
71563;DHT22;59391;52.504;13.438;2022-07-04T18:17:55;27.20;27.60
71563;DHT22;59391;52.504;13.438;2022-07-04T18:20:21;27.20;27.80
71563;DHT22;59391;52.504;13.438;2022-07-04T18:22:47;27.20;27.70
71563;DHT22;59391;52.504;13.438;2022-07-04T18:25:12;27.20;27.50
71563;DHT22;59391;52.504;13.438;2022-07-04T18:27:38;27.20;27.80
71563;DHT22;59391;52.504;13.438;2022-07-04T18:30:04;27.10;27.80
71563;DHT22;59391;52.504;13.438;2022-07-04T18:32:30;27.20;28.20
71563;DHT22;59391;52.504;13.438;2022-07-04T18:34:56;27.10;27.70
71563;DHT22;59391;52.504;13.438;2022-07-04T18:37:21;27.10;28.10
71563;DHT22;59391;52.504;13.438;2022-07-04T18:40:14;27.10;28.20
71563;DHT22;59391;52.504;13.438;2022-07-04T18:42:57;27.00;27.70
71563;DHT22;59391;52.504;13.438;2022-07-04T18:45:42;27.00;28.30
71563;DHT22;59391;52.504;13.438;2022-07-04T18:48:07;27.00;28.30
71563;DHT22;59391;52.504;13.438;2022-07-04T18:50:33;26.90;27.60
71563;DHT22;59391;52.504;13.438;2022-07-04T18:52:59;26.90;27.60
71563;DHT22;59391;52.504;13.438;2022-07-04T18:55:25;26.90;27.80
71563;DHT22;59391;52.504;13.438;2022-07-04T18:57:50;26.90;27.50
71563;DHT22;59391;52.504;13.438;2022-07-04T19:00:16;26.80;27.60
71563;DHT22;59391;52.504;13.438;2022-07-04T19:02:42;26.70;27.70
71563;DHT22;59391;52.504;13.438;2022-07-04T19:05:08;26.70;27.90
71563;DHT22;59391;52.504;13.438;2022-07-04T19:07:34;26.70;27.90
71563;DHT22;59391;52.504;13.438;2022-07-04T19:09:59;26.60;28.70
71563;DHT22;59391;52.504;13.438;2022-07-04T19:12:25;26.60;28.80
71563;DHT22;59391;52.504;13.438;2022-07-04T19:14:55;26.60;28.80
71563;DHT22;59391;52.504;13.438;2022-07-04T19:17:24;26.50;28.80
71563;DHT22;59391;52.504;13.438;2022-07-04T19:19:50;26.50;28.60
71563;DHT22;59391;52.504;13.438;2022-07-04T19:22:15;26.50;28.80
71563;DHT22;59391;52.504;13.438;2022-07-04T19:24:44;26.50;28.80
71563;DHT22;59391;52.504;13.438;2022-07-04T19:27:15;26.50;28.90
71563;DHT22;59391;52.504;13.438;2022-07-04T19:29:41;26.40;29.00
71563;DHT22;59391;52.504;13.438;2022-07-04T19:32:08;26.40;29.10
71563;DHT22;59391;52.504;13.438;2022-07-04T19:34:34;26.40;29.60
71563;DHT22;59391;52.504;13.438;2022-07-04T19:37:00;26.40;29.70
71563;DHT22;59391;52.504;13.438;2022-07-04T19:39:26;26.40;29.40
71563;DHT22;59391;52.504;13.438;2022-07-04T19:41:51;26.30;29.40
71563;DHT22;59391;52.504;13.438;2022-07-04T19:44:17;26.30;29.80
71563;DHT22;59391;52.504;13.438;2022-07-04T19:46:45;26.30;29.80
71563;DHT22;59391;52.504;13.438;2022-07-04T19:49:11;26.20;29.80
71563;DHT22;59391;52.504;13.438;2022-07-04T19:51:37;26.20;29.90
71563;DHT22;59391;52.504;13.438;2022-07-04T19:54:04;26.20;29.80
71563;DHT22;59391;52.504;13.438;2022-07-04T19:56:30;26.20;30.00
71563;DHT22;59391;52.504;13.438;2022-07-04T19:58:56;26.20;30.20
71563;DHT22;59391;52.504;13.438;2022-07-04T20:01:22;26.10;30.00
71563;DHT22;59391;52.504;13.438;2022-07-04T20:06:23;26.10;29.90
71563;DHT22;59391;52.504;13.438;2022-07-04T20:08:48;26.10;30.20
71563;DHT22;59391;52.504;13.438;2022-07-04T20:11:14;26.00;30.20
71563;DHT22;59391;52.504;13.438;2022-07-04T20:13:45;26.00;30.20
71563;DHT22;59391;52.504;13.438;2022-07-04T20:16:14;26.00;30.40
71563;DHT22;59391;52.504;13.438;2022-07-04T20:18:40;25.90;30.50
71563;DHT22;59391;52.504;13.438;2022-07-04T20:21:05;25.90;30.60
71563;DHT22;59391;52.504;13.438;2022-07-04T20:23:31;25.80;30.60
71563;DHT22;59391;52.504;13.438;2022-07-04T20:26:01;25.80;30.70
71563;DHT22;59391;52.504;13.438;2022-07-04T20:28:27;25.70;30.90
71563;DHT22;59391;52.504;13.438;2022-07-04T20:30:56;25.70;30.90
71563;DHT22;59391;52.504;13.438;2022-07-04T20:33:23;25.60;31.00
71563;DHT22;59391;52.504;13.438;2022-07-04T20:35:49;25.60;31.30
71563;DHT22;59391;52.504;13.438;2022-07-04T20:38:14;25.50;31.50
71563;DHT22;59391;52.504;13.438;2022-07-04T20:40:41;25.50;31.50
71563;DHT22;59391;52.504;13.438;2022-07-04T20:43:06;25.40;31.60
71563;DHT22;59391;52.504;13.438;2022-07-04T20:45:32;25.40;31.80
71563;DHT22;59391;52.504;13.438;2022-07-04T20:47:58;25.30;31.90
71563;DHT22;59391;52.504;13.438;2022-07-04T20:50:24;25.30;32.00
71563;DHT22;59391;52.504;13.438;2022-07-04T20:52:50;25.20;32.20
71563;DHT22;59391;52.504;13.438;2022-07-04T20:55:17;25.10;32.40
71563;DHT22;59391;52.504;13.438;2022-07-04T20:57:43;25.00;32.50
71563;DHT22;59391;52.504;13.438;2022-07-04T21:00:11;25.00;32.70
71563;DHT22;59391;52.504;13.438;2022-07-04T21:02:37;25.00;33.10
71563;DHT22;59391;52.504;13.438;2022-07-04T21:05:04;24.90;33.10
71563;DHT22;59391;52.504;13.438;2022-07-04T21:07:30;24.90;32.90
71563;DHT22;59391;52.504;13.438;2022-07-04T21:09:56;24.80;33.40
71563;DHT22;59391;52.504;13.438;2022-07-04T21:12:22;24.80;33.20
71563;DHT22;59391;52.504;13.438;2022-07-04T21:14:48;24.80;33.50
71563;DHT22;59391;52.504;13.438;2022-07-04T21:17:13;24.70;33.40
71563;DHT22;59391;52.504;13.438;2022-07-04T21:19:39;24.70;33.30
71563;DHT22;59391;52.504;13.438;2022-07-04T21:22:04;24.70;33.50
71563;DHT22;59391;52.504;13.438;2022-07-04T21:24:30;24.60;33.60
71563;DHT22;59391;52.504;13.438;2022-07-04T21:26:56;24.60;33.80
71563;DHT22;59391;52.504;13.438;2022-07-04T21:29:22;24.50;33.70
71563;DHT22;59391;52.504;13.438;2022-07-04T21:31:47;24.40;34.10
71563;DHT22;59391;52.504;13.438;2022-07-04T21:34:13;24.40;34.20
71563;DHT22;59391;52.504;13.438;2022-07-04T21:36:39;24.30;34.30
71563;DHT22;59391;52.504;13.438;2022-07-04T21:39:05;24.30;34.50
71563;DHT22;59391;52.504;13.438;2022-07-04T21:41:31;24.20;34.40
71563;DHT22;59391;52.504;13.438;2022-07-04T21:43:57;24.20;34.60
71563;DHT22;59391;52.504;13.438;2022-07-04T21:46:23;24.10;34.60
71563;DHT22;59391;52.504;13.438;2022-07-04T21:48:48;24.10;34.60
71563;DHT22;59391;52.504;13.438;2022-07-04T21:51:14;24.10;34.70
71563;DHT22;59391;52.504;13.438;2022-07-04T21:53:40;24.00;34.70
71563;DHT22;59391;52.504;13.438;2022-07-04T21:56:05;24.00;34.90
71563;DHT22;59391;52.504;13.438;2022-07-04T21:58:31;24.00;35.00
71563;DHT22;59391;52.504;13.438;2022-07-04T22:00:56;23.90;35.10
71563;DHT22;59391;52.504;13.438;2022-07-04T22:03:22;23.90;35.20
71563;DHT22;59391;52.504;13.438;2022-07-04T22:05:48;23.90;35.30
71563;DHT22;59391;52.504;13.438;2022-07-04T22:08:13;23.80;35.50
71563;DHT22;59391;52.504;13.438;2022-07-04T22:10:39;23.80;35.50
71563;DHT22;59391;52.504;13.438;2022-07-04T22:13:05;23.80;35.30
71563;DHT22;59391;52.504;13.438;2022-07-04T22:15:31;23.80;35.10
71563;DHT22;59391;52.504;13.438;2022-07-04T22:17:57;23.80;35.20
71563;DHT22;59391;52.504;13.438;2022-07-04T22:20:24;23.70;35.70
71563;DHT22;59391;52.504;13.438;2022-07-04T22:22:50;23.70;35.80
71563;DHT22;59391;52.504;13.438;2022-07-04T22:25:16;23.70;35.80
71563;DHT22;59391;52.504;13.438;2022-07-04T22:27:41;23.70;35.70
71563;DHT22;59391;52.504;13.438;2022-07-04T22:30:09;23.70;35.80
71563;DHT22;59391;52.504;13.438;2022-07-04T22:32:36;23.60;35.80
71563;DHT22;59391;52.504;13.438;2022-07-04T22:35:02;23.60;35.80
71563;DHT22;59391;52.504;13.438;2022-07-04T22:37:28;23.60;35.90
71563;DHT22;59391;52.504;13.438;2022-07-04T22:39:54;23.60;36.00
71563;DHT22;59391;52.504;13.438;2022-07-04T22:42:20;23.60;35.90